Time;durP1;ratioP1;P1;durP2;ratioP2;P2;SDS_P1;SDS_P2;PMS_P1;PMS_P2;Temp;Humidity;BMP_temperature;BMP_pressure;BME280_temperature;BME280_humidity;BME280_pressure;Samples;Min_cycle;Max_cycle;Signal;HPM_P1;HPM_P2
2023/06/26 00:02:20;;;;;;;10.45;9.35;;;;;;;;;;5039953;28;20125;-73
2023/06/26 00:04:46;;;;;;;10.10;8.00;;;;;;;;;;4952895;28;20177;-73
2023/06/26 00:07:12;;;;;;;9.10;8.15;;;;;;;;;;5057809;28;20125;-73
2023/06/26 00:09:41;;;;;;;9.57;8.57;;;;;;;;;;4956883;28;20176;-73
2023/06/26 00:12:07;;;;;;;9.82;8.82;;;;;;;;;;4960250;28;20042;-73
2023/06/26 00:14:33;;;;;;;11.07;8.52;;;;;;;;;;5028430;28;20384;-73
2023/06/26 00:16:59;;;;;;;9.75;8.75;;;;;;;;;;5057447;28;20053;-73
2023/06/26 00:19:25;;;;;;;10.35;8.75;;;;;;;;;;4960188;28;20043;-73
2023/06/26 00:21:52;;;;;;;9.30;8.05;;;;;;;;;;5044592;28;20111;-73
2023/06/26 00:24:18;;;;;;;9.63;8.63;;;;;;;;;;4965021;28;20477;-73
2023/06/26 00:26:48;;;;;;;9.63;8.65;;;;;;;;;;4962111;28;20039;-73
2023/06/26 00:29:14;;;;;;;10.25;8.15;;;;;;;;;;4957796;28;20133;-73
2023/06/26 00:31:40;;;;;;;10.18;9.18;;;;;;;;;;4959280;28;20161;-73
2023/06/26 00:34:06;;;;;;;10.27;9.15;;;;;;;;;;4961954;28;20070;-73
2023/06/26 00:36:32;;;;;;;10.40;8.90;;;;;;;;;;5025307;28;20047;-73
2023/06/26 00:38:59;;;;;;;11.10;10.00;;;;;;;;;;4958387;28;20399;-73
2023/06/26 00:41:25;;;;;;;10.20;9.20;;;;;;;;;;5029507;28;20384;-73
2023/06/26 00:43:52;;;;;;;11.02;9.52;;;;;;;;;;4960431;28;20121;-73
2023/06/26 00:46:18;;;;;;;9.57;8.60;;;;;;;;;;5025047;28;20051;-72
2023/06/26 00:48:45;;;;;;;10.55;9.45;;;;;;;;;;4963099;28;20493;-73
2023/06/26 00:51:11;;;;;;;10.70;9.52;;;;;;;;;;4959503;28;20835;-73
2023/06/26 00:53:37;;;;;;;11.52;9.77;;;;;;;;;;4960952;28;20536;-73
2023/06/26 00:56:03;;;;;;;11.75;10.20;;;;;;;;;;5057787;28;20059;-73
2023/06/26 00:58:29;;;;;;;10.43;9.32;;;;;;;;;;4964691;28;20058;-73
2023/06/26 01:00:55;;;;;;;10.85;9.75;;;;;;;;;;5025034;28;20097;-73
2023/06/26 01:03:23;;;;;;;10.70;9.57;;;;;;;;;;4965136;28;20049;-73
2023/06/26 01:05:50;;;;;;;10.68;9.57;;;;;;;;;;5060893;28;20051;-73
2023/06/26 01:08:17;;;;;;;11.05;9.77;;;;;;;;;;4960596;28;20375;-73
2023/06/26 01:10:43;;;;;;;10.60;9.50;;;;;;;;;;4958164;28;20156;-72
2023/06/26 01:13:09;;;;;;;13.40;12.10;;;;;;;;;;5035151;28;20110;-73
2023/06/26 01:15:35;;;;;;;10.07;8.90;;;;;;;;;;4966032;28;20058;-72
2023/06/26 01:18:03;;;;;;;10.48;7.82;;;;;;;;;;4974547;28;20059;-72
2023/06/26 01:20:37;;;;;;;8.75;6.47;;;;;;;;;;4960271;28;20056;-72
2023/06/26 01:23:15;;;;;;;9.02;6.65;;;;;;;;;;5027416;28;20093;-73
2023/06/26 01:25:50;;;;;;;7.40;6.35;;;;;;;;;;4967229;28;20595;-73
2023/06/26 01:28:17;;;;;;;8.05;6.38;;;;;;;;;;5011152;28;20057;-72
2023/06/26 01:30:44;;;;;;;9.38;6.22;;;;;;;;;;4987618;28;20049;-72
2023/06/26 01:33:11;;;;;;;8.18;5.57;;;;;;;;;;4969957;28;20047;-72
2023/06/26 01:35:37;;;;;;;9.73;5.95;;;;;;;;;;4974052;28;20042;-72
2023/06/26 01:38:25;;;;;;;8.77;5.78;;;;;;;;;;5018972;28;20057;-72
2023/06/26 01:40:52;;;;;;;8.98;6.72;;;;;;;;;;4968056;28;20058;-73
2023/06/26 01:43:22;;;;;;;7.55;6.00;;;;;;;;;;5064373;28;20057;-72
2023/06/26 01:45:50;;;;;;;8.32;6.68;;;;;;;;;;4965044;28;20058;-73
2023/06/26 01:48:17;;;;;;;11.90;8.90;;;;;;;;;;4957934;28;20118;-72
2023/06/26 01:50:44;;;;;;;7.57;6.07;;;;;;;;;;4966415;28;20078;-72
2023/06/26 01:53:17;;;;;;;7.47;5.50;;;;;;;;;;4969792;28;20039;-72
2023/06/26 01:55:52;;;;;;;9.05;5.40;;;;;;;;;;4971200;28;20096;-72
2023/06/26 01:58:20;;;;;;;11.38;6.60;;;;;;;;;;5036010;28;20058;-72
2023/06/26 02:00:46;;;;;;;8.45;6.25;;;;;;;;;;5051891;28;20082;-72
2023/06/26 02:03:12;;;;;;;8.93;6.55;;;;;;;;;;5007852;28;20044;-72
2023/06/26 02:05:38;;;;;;;10.48;7.05;;;;;;;;;;4961395;28;20043;-72
2023/06/26 02:08:05;;;;;;;11.45;6.75;;;;;;;;;;5038380;28;20528;-72
2023/06/26 02:10:31;;;;;;;11.60;7.50;;;;;;;;;;4977373;28;20094;-72
2023/06/26 02:12:57;;;;;;;13.18;7.53;;;;;;;;;;4978935;28;20054;-71
2023/06/26 02:15:23;;;;;;;11.77;7.40;;;;;;;;;;4969814;28;20104;-72
2023/06/26 02:17:49;;;;;;;12.40;8.00;;;;;;;;;;5067832;28;20096;-72
2023/06/26 02:20:15;;;;;;;10.95;7.80;;;;;;;;;;5024336;28;20047;-72
2023/06/26 02:22:42;;;;;;;13.85;7.10;;;;;;;;;;5024638;28;20051;-72
2023/06/26 02:25:08;;;;;;;12.57;7.28;;;;;;;;;;4969687;28;20058;-72
2023/06/26 02:27:34;;;;;;;11.82;6.97;;;;;;;;;;4980890;28;20038;-72
2023/06/26 02:30:00;;;;;;;10.18;7.40;;;;;;;;;;4973672;28;20101;-71
2023/06/26 02:32:26;;;;;;;10.20;7.65;;;;;;;;;;4976566;28;20043;-72
2023/06/26 02:34:52;;;;;;;10.45;7.22;;;;;;;;;;4970717;28;20129;-72
2023/06/26 02:37:18;;;;;;;10.98;7.15;;;;;;;;;;4997322;28;20417;-72
2023/06/26 02:39:44;;;;;;;10.10;7.45;;;;;;;;;;4964735;28;20109;-72
2023/06/26 02:42:11;;;;;;;9.38;7.63;;;;;;;;;;4981189;28;20495;-72
2023/06/26 02:44:37;;;;;;;12.23;7.75;;;;;;;;;;5018015;28;20074;-71
2023/06/26 02:47:03;;;;;;;13.65;8.00;;;;;;;;;;5021971;28;20039;-72
2023/06/26 02:49:29;;;;;;;9.43;7.78;;;;;;;;;;4988192;28;20089;-72
2023/06/26 02:51:55;;;;;;;12.65;7.78;;;;;;;;;;4965008;28;20051;-72
2023/06/26 02:54:21;;;;;;;11.95;7.45;;;;;;;;;;4968978;28;20424;-72
2023/06/26 02:56:48;;;;;;;11.68;7.68;;;;;;;;;;5017750;28;20095;-71
2023/06/26 02:59:14;;;;;;;11.27;7.63;;;;;;;;;;5021329;28;20050;-72
2023/06/26 03:01:40;;;;;;;14.18;7.57;;;;;;;;;;4969930;28;20039;-72
2023/06/26 03:04:06;;;;;;;13.65;7.72;;;;;;;;;;4968784;28;20166;-72
2023/06/26 03:06:32;;;;;;;13.23;7.88;;;;;;;;;;4969128;28;20533;-72
2023/06/26 03:08:58;;;;;;;11.90;7.50;;;;;;;;;;4963316;28;20050;-72
2023/06/26 03:11:24;;;;;;;11.27;8.35;;;;;;;;;;4968896;28;20046;-71
2023/06/26 03:13:50;;;;;;;12.10;7.72;;;;;;;;;;5010327;28;20043;-72
2023/06/26 03:16:16;;;;;;;10.23;7.00;;;;;;;;;;4963712;28;20487;-71
2023/06/26 03:18:42;;;;;;;12.05;7.40;;;;;;;;;;4970376;28;20035;-72
2023/06/26 03:21:09;;;;;;;10.35;6.40;;;;;;;;;;4988751;28;20047;-72
2023/06/26 03:23:35;;;;;;;13.68;6.50;;;;;;;;;;4969598;28;20054;-72
2023/06/26 03:26:01;;;;;;;10.98;7.03;;;;;;;;;;4970681;28;20043;-72
2023/06/26 03:28:27;;;;;;;11.70;7.00;;;;;;;;;;4966534;28;20130;-72
2023/06/26 03:30:53;;;;;;;11.85;6.47;;;;;;;;;;4964876;28;20035;-72
2023/06/26 03:33:19;;;;;;;9.05;5.75;;;;;;;;;;4971286;28;20104;-71
2023/06/26 03:35:45;;;;;;;8.48;6.40;;;;;;;;;;4968365;28;20049;-72
2023/06/26 03:38:11;;;;;;;9.27;5.13;;;;;;;;;;5046201;28;20043;-72
2023/06/26 03:40:37;;;;;;;11.05;5.75;;;;;;;;;;5010728;28;20039;-72
2023/06/26 03:43:03;;;;;;;9.30;5.20;;;;;;;;;;4967030;28;20104;-71
2023/06/26 03:45:29;;;;;;;10.50;5.80;;;;;;;;;;4972841;28;20508;-72
2023/06/26 03:47:55;;;;;;;12.18;5.80;;;;;;;;;;5002155;28;20038;-72
2023/06/26 03:50:21;;;;;;;7.75;5.20;;;;;;;;;;4974349;28;20058;-72
2023/06/26 03:52:47;;;;;;;9.57;4.78;;;;;;;;;;4972844;28;20126;-73
2023/06/26 03:55:13;;;;;;;10.05;5.07;;;;;;;;;;4960798;28;20930;-72
2023/06/26 03:57:40;;;;;;;9.98;4.93;;;;;;;;;;4957612;28;20039;-72
2023/06/26 04:00:08;;;;;;;7.95;3.97;;;;;;;;;;4961333;28;20043;-71
2023/06/26 04:02:34;;;;;;;5.43;3.70;;;;;;;;;;5053138;28;20083;-72
2023/06/26 04:05:00;;;;;;;11.55;4.15;;;;;;;;;;4967060;28;20078;-72
2023/06/26 04:07:26;;;;;;;9.88;4.18;;;;;;;;;;5037061;28;20058;-71
2023/06/26 04:09:52;;;;;;;5.70;3.75;;;;;;;;;;4966990;28;20043;-72
2023/06/26 04:12:18;;;;;;;11.68;4.40;;;;;;;;;;4969938;28;20124;-71
2023/06/26 04:14:44;;;;;;;12.32;4.07;;;;;;;;;;4960546;28;20086;-71
2023/06/26 04:17:10;;;;;;;6.78;3.38;;;;;;;;;;4950154;28;20051;-71
2023/06/26 04:19:36;;;;;;;8.45;3.85;;;;;;;;;;4969440;28;20046;-72
2023/06/26 04:22:02;;;;;;;10.13;3.92;;;;;;;;;;5020010;28;20050;-72
2023/06/26 04:24:28;;;;;;;10.88;4.40;;;;;;;;;;4967587;28;20082;-72
2023/06/26 04:26:56;;;;;;;9.13;3.95;;;;;;;;;;4968841;28;20047;-72
2023/06/26 04:29:25;;;;;;;8.48;3.63;;;;;;;;;;4968093;28;20050;-72
2023/06/26 04:31:51;;;;;;;7.78;3.47;;;;;;;;;;4966137;28;20051;-72
2023/06/26 04:34:18;;;;;;;9.52;3.40;;;;;;;;;;4974588;28;20046;-72
2023/06/26 04:36:47;;;;;;;8.73;3.63;;;;;;;;;;5014748;28;20194;-72
2023/06/26 04:39:14;;;;;;;7.60;3.50;;;;;;;;;;4978175;28;20495;-71
2023/06/26 04:41:41;;;;;;;10.38;3.53;;;;;;;;;;4969247;28;20521;-72
2023/06/26 04:44:07;;;;;;;8.02;3.35;;;;;;;;;;4971257;28;20452;-72
2023/06/26 04:46:33;;;;;;;8.02;4.03;;;;;;;;;;4968980;28;20036;-71
2023/06/26 04:48:59;;;;;;;10.07;3.85;;;;;;;;;;4968973;28;20080;-72
2023/06/26 04:51:26;;;;;;;12.35;4.22;;;;;;;;;;4965755;28;20054;-72
2023/06/26 04:53:52;;;;;;;8.48;3.22;;;;;;;;;;4964625;28;20047;-72
2023/06/26 04:56:19;;;;;;;9.45;3.20;;;;;;;;;;4972638;28;20049;-72
2023/06/26 04:58:45;;;;;;;12.10;3.30;;;;;;;;;;4965629;28;20043;-72
2023/06/26 05:01:13;;;;;;;7.55;3.22;;;;;;;;;;4969026;28;20540;-72
2023/06/26 05:03:42;;;;;;;5.78;3.22;;;;;;;;;;5036715;28;20057;-72
2023/06/26 05:06:09;;;;;;;6.90;3.13;;;;;;;;;;4965445;28;20051;-71
2023/06/26 05:08:35;;;;;;;8.13;3.15;;;;;;;;;;4978449;28;20183;-72
2023/06/26 05:11:01;;;;;;;6.95;3.10;;;;;;;;;;4968333;28;20980;-72
2023/06/26 05:13:27;;;;;;;11.63;3.75;;;;;;;;;;4982086;28;20096;-72
2023/06/26 05:15:53;;;;;;;5.60;2.72;;;;;;;;;;4967369;28;20046;-72
2023/06/26 05:18:19;;;;;;;10.50;2.85;;;;;;;;;;4970178;28;20054;-72
2023/06/26 05:20:46;;;;;;;8.18;3.38;;;;;;;;;;4986663;28;20089;-72
2023/06/26 05:23:12;;;;;;;11.07;3.90;;;;;;;;;;4964435;28;20043;-72
2023/06/26 05:25:42;;;;;;;9.02;3.00;;;;;;;;;;4971073;28;20441;-72
2023/06/26 05:28:10;;;;;;;12.48;3.50;;;;;;;;;;4965112;28;20400;-72
2023/06/26 05:30:36;;;;;;;8.02;2.75;;;;;;;;;;4981316;28;20138;-72
2023/06/26 05:33:03;;;;;;;4.63;2.67;;;;;;;;;;4966964;28;20097;-72
2023/06/26 05:35:30;;;;;;;4.70;2.75;;;;;;;;;;4966698;28;22313;-72
2023/06/26 05:37:56;;;;;;;6.63;2.90;;;;;;;;;;4966608;28;20126;-72
2023/06/26 05:40:22;;;;;;;9.35;2.70;;;;;;;;;;4965898;28;20042;-72
2023/06/26 05:42:49;;;;;;;6.10;2.55;;;;;;;;;;4974077;28;20117;-72
2023/06/26 05:45:15;;;;;;;7.95;3.20;;;;;;;;;;4968148;28;20058;-72
2023/06/26 05:47:41;;;;;;;6.18;2.88;;;;;;;;;;4965188;28;20042;-72
2023/06/26 05:50:09;;;;;;;14.13;3.35;;;;;;;;;;4967338;28;20402;-72
2023/06/26 05:52:35;;;;;;;6.95;2.97;;;;;;;;;;4979175;28;20047;-71
2023/06/26 05:55:02;;;;;;;9.52;3.38;;;;;;;;;;5027410;28;20055;-72
2023/06/26 05:57:29;;;;;;;7.00;3.10;;;;;;;;;;4996198;28;20039;-73
2023/06/26 05:59:55;;;;;;;9.95;3.00;;;;;;;;;;4986235;28;20483;-72
2023/06/26 06:02:21;;;;;;;6.88;2.80;;;;;;;;;;4966507;28;20044;-72
2023/06/26 06:04:47;;;;;;;7.53;2.90;;;;;;;;;;4972099;28;20049;-72
2023/06/26 06:07:13;;;;;;;10.68;2.72;;;;;;;;;;4975653;28;20039;-72
2023/06/26 06:09:40;;;;;;;6.05;2.60;;;;;;;;;;5012120;28;20050;-72
2023/06/26 06:12:06;;;;;;;12.45;3.03;;;;;;;;;;4971889;28;20065;-72
2023/06/26 06:14:33;;;;;;;5.60;2.67;;;;;;;;;;4970608;28;20039;-72
2023/06/26 06:16:59;;;;;;;8.45;2.83;;;;;;;;;;4970397;28;20043;-72
2023/06/26 06:19:25;;;;;;;10.98;3.40;;;;;;;;;;4971676;28;20122;-72
2023/06/26 06:21:51;;;;;;;5.80;2.42;;;;;;;;;;4969008;28;20043;-72
2023/06/26 06:24:17;;;;;;;5.32;2.90;;;;;;;;;;4971339;28;20035;-72
2023/06/26 06:26:44;;;;;;;6.20;2.80;;;;;;;;;;4969180;28;20183;-72
2023/06/26 06:29:10;;;;;;;10.05;4.07;;;;;;;;;;5020664;28;20087;-72
2023/06/26 06:31:36;;;;;;;4.93;2.75;;;;;;;;;;4971646;28;20510;-72
2023/06/26 06:34:02;;;;;;;5.65;2.80;;;;;;;;;;5021996;28;20108;-72
2023/06/26 06:36:28;;;;;;;3.80;2.92;;;;;;;;;;4994740;28;20062;-72
2023/06/26 06:38:54;;;;;;;9.52;3.22;;;;;;;;;;4968593;28;20046;-72
2023/06/26 06:41:20;;;;;;;7.70;3.38;;;;;;;;;;4961405;28;20062;-72
2023/06/26 06:43:47;;;;;;;5.95;3.10;;;;;;;;;;4998875;28;20050;-72
2023/06/26 06:46:13;;;;;;;13.07;3.92;;;;;;;;;;5046712;28;20083;-72
2023/06/26 06:48:39;;;;;;;6.10;2.90;;;;;;;;;;4962681;28;20046;-72
2023/06/26 06:51:05;;;;;;;7.55;2.90;;;;;;;;;;4984208;28;20051;-72
2023/06/26 06:53:31;;;;;;;8.82;3.08;;;;;;;;;;5012653;28;20043;-72
2023/06/26 06:55:58;;;;;;;9.57;3.13;;;;;;;;;;4965003;28;20133;-70
2023/06/26 06:58:24;;;;;;;7.88;2.80;;;;;;;;;;5028457;28;20509;-72
2023/06/26 07:00:51;;;;;;;8.98;3.45;;;;;;;;;;4971861;28;20047;-72
2023/06/26 07:03:17;;;;;;;8.00;2.90;;;;;;;;;;4961965;28;20041;-71
2023/06/26 07:05:44;;;;;;;9.88;3.42;;;;;;;;;;4970132;28;20049;-72
2023/06/26 07:08:10;;;;;;;7.47;2.28;;;;;;;;;;5018660;28;20049;-71
2023/06/26 07:10:36;;;;;;;8.95;3.28;;;;;;;;;;4970256;28;20042;-72
2023/06/26 07:13:02;;;;;;;5.25;3.42;;;;;;;;;;4968015;28;20047;-71
2023/06/26 07:15:28;;;;;;;5.47;2.80;;;;;;;;;;4974515;28;20050;-72
2023/06/26 07:17:55;;;;;;;11.73;4.05;;;;;;;;;;5021635;28;20043;-71
2023/06/26 07:20:21;;;;;;;8.02;3.22;;;;;;;;;;4969559;28;20074;-69
2023/06/26 07:22:47;;;;;;;6.28;3.20;;;;;;;;;;5027982;28;20051;-72
2023/06/26 07:25:13;;;;;;;6.15;3.13;;;;;;;;;;5024324;28;20047;-72
2023/06/26 07:27:40;;;;;;;7.38;2.90;;;;;;;;;;4976315;28;20091;-70
2023/06/26 07:30:08;;;;;;;8.73;2.92;;;;;;;;;;5048541;28;20568;-71
2023/06/26 07:32:34;;;;;;;10.95;3.40;;;;;;;;;;5033677;28;20054;-68
2023/06/26 07:35:00;;;;;;;8.13;3.63;;;;;;;;;;5035087;28;20046;-69
2023/06/26 07:37:26;;;;;;;6.70;3.20;;;;;;;;;;4968008;28;20131;-69
2023/06/26 07:39:52;;;;;;;6.25;3.55;;;;;;;;;;4971485;28;20034;-69
2023/06/26 07:42:18;;;;;;;5.93;3.72;;;;;;;;;;5033259;28;20512;-70
2023/06/26 07:44:44;;;;;;;11.00;4.03;;;;;;;;;;5017114;28;20103;-69
2023/06/26 07:47:11;;;;;;;6.68;4.05;;;;;;;;;;4961677;28;20406;-70
2023/06/26 07:49:38;;;;;;;8.80;3.67;;;;;;;;;;5027861;28;20086;-69
2023/06/26 07:52:05;;;;;;;7.72;4.18;;;;;;;;;;5046931;28;20054;-69
2023/06/26 07:54:31;;;;;;;9.25;4.55;;;;;;;;;;4968634;28;20047;-70
2023/06/26 07:57:01;;;;;;;8.60;3.72;;;;;;;;;;4970778;28;20522;-70
2023/06/26 07:59:28;;;;;;;8.95;3.88;;;;;;;;;;4988609;28;20047;-70
2023/06/26 08:01:55;;;;;;;11.73;4.47;;;;;;;;;;4958784;28;20512;-70
2023/06/26 08:04:22;;;;;;;10.50;4.00;;;;;;;;;;4965056;28;20043;-70
2023/06/26 08:06:49;;;;;;;12.23;4.13;;;;;;;;;;5059066;28;20134;-70
2023/06/26 08:09:15;;;;;;;8.38;4.65;;;;;;;;;;4967227;28;20505;-70
2023/06/26 08:11:41;;;;;;;7.55;4.47;;;;;;;;;;4965373;28;20042;-71
2023/06/26 08:14:07;;;;;;;6.38;3.72;;;;;;;;;;4961965;28;20077;-70
2023/06/26 08:16:33;;;;;;;9.32;4.15;;;;;;;;;;5018961;28;20075;-70
2023/06/26 08:18:59;;;;;;;7.35;4.30;;;;;;;;;;4962170;28;20389;-70
2023/06/26 08:21:25;;;;;;;11.38;4.80;;;;;;;;;;5025604;28;20047;-70
2023/06/26 08:23:51;;;;;;;5.90;3.95;;;;;;;;;;4966202;28;20042;-70
2023/06/26 08:26:17;;;;;;;10.05;4.90;;;;;;;;;;4963005;28;20134;-70
2023/06/26 08:28:44;;;;;;;9.60;4.78;;;;;;;;;;4958240;28;20691;-71
2023/06/26 08:31:10;;;;;;;9.88;4.82;;;;;;;;;;4963130;28;20051;-71
2023/06/26 08:33:36;;;;;;;10.18;5.18;;;;;;;;;;4968688;28;20372;-71
2023/06/26 08:36:02;;;;;;;9.80;4.70;;;;;;;;;;5021944;28;20066;-70
2023/06/26 08:38:28;;;;;;;9.50;4.57;;;;;;;;;;4960786;28;20036;-71
2023/06/26 08:40:54;;;;;;;8.57;4.30;;;;;;;;;;4950257;28;20047;-70
2023/06/26 08:43:21;;;;;;;7.50;5.00;;;;;;;;;;5060817;28;20081;-71
2023/06/26 08:45:51;;;;;;;7.60;4.50;;;;;;;;;;5042717;28;20062;-70
2023/06/26 08:48:17;;;;;;;7.45;4.55;;;;;;;;;;5041660;28;20052;-71
2023/06/26 08:50:44;;;;;;;7.63;4.85;;;;;;;;;;5031846;28;20051;-71
2023/06/26 08:53:30;;;;;;;10.45;4.35;;;;;;;;;;4961864;28;20050;-71
2023/06/26 08:55:58;;;;;;;8.65;4.05;;;;;;;;;;4970376;28;20082;-71
2023/06/26 08:58:24;;;;;;;7.28;3.72;;;;;;;;;;4971892;28;20043;-71
2023/06/26 09:00:51;;;;;;;7.57;3.00;;;;;;;;;;4970901;28;20057;-70
2023/06/26 09:03:17;;;;;;;5.10;2.85;;;;;;;;;;4972301;28;20043;-72
2023/06/26 09:05:43;;;;;;;6.72;3.22;;;;;;;;;;4979468;28;20493;-72
2023/06/26 09:08:09;;;;;;;6.85;3.42;;;;;;;;;;5039490;28;20054;-71
2023/06/26 09:10:35;;;;;;;6.88;2.75;;;;;;;;;;4958391;28;20086;-71
2023/06/26 09:13:03;;;;;;;7.25;2.85;;;;;;;;;;4974112;28;20390;-71
2023/06/26 09:15:38;;;;;;;6.13;2.88;;;;;;;;;;5013766;28;20050;-71
2023/06/26 09:18:05;;;;;;;7.43;2.70;;;;;;;;;;5032165;28;20058;-71
2023/06/26 09:20:34;;;;;;;9.27;2.63;;;;;;;;;;5049089;28;20042;-71
2023/06/26 09:23:02;;;;;;;7.97;2.83;;;;;;;;;;4969417;28;20053;-71
2023/06/26 09:25:28;;;;;;;9.18;3.08;;;;;;;;;;5072627;28;20051;-71
2023/06/26 09:27:54;;;;;;;8.02;2.70;;;;;;;;;;4964753;28;20507;-71
2023/06/26 09:30:20;;;;;;;10.18;3.00;;;;;;;;;;4966011;28;20134;-71
2023/06/26 09:32:47;;;;;;;11.20;2.78;;;;;;;;;;5070450;28;20058;-70
2023/06/26 09:35:13;;;;;;;8.90;2.83;;;;;;;;;;4962951;28;20122;-71
2023/06/26 09:37:39;;;;;;;6.45;2.53;;;;;;;;;;4970754;28;20390;-72
2023/06/26 09:40:06;;;;;;;6.40;2.33;;;;;;;;;;4968756;28;20054;-71
2023/06/26 09:42:32;;;;;;;6.22;2.50;;;;;;;;;;5054179;28;20059;-71
2023/06/26 09:44:58;;;;;;;8.15;2.28;;;;;;;;;;4972085;28;20086;-71
2023/06/26 09:47:24;;;;;;;9.15;2.90;;;;;;;;;;4968743;28;20129;-71
2023/06/26 09:49:52;;;;;;;9.95;2.75;;;;;;;;;;4971876;28;20054;-70
2023/06/26 09:52:19;;;;;;;8.82;2.72;;;;;;;;;;4959578;28;20054;-72
2023/06/26 09:54:46;;;;;;;10.85;4.25;;;;;;;;;;4962182;28;20397;-72
2023/06/26 09:57:13;;;;;;;8.93;2.90;;;;;;;;;;5012991;28;20038;-71
2023/06/26 09:59:40;;;;;;;11.23;3.30;;;;;;;;;;4972234;28;20050;-72
2023/06/26 10:02:06;;;;;;;8.18;2.33;;;;;;;;;;4960439;28;20306;-71
2023/06/26 10:04:33;;;;;;;6.22;2.90;;;;;;;;;;5026438;28;20047;-72
2023/06/26 10:07:02;;;;;;;9.48;2.85;;;;;;;;;;4965806;28;20050;-72
2023/06/26 10:09:28;;;;;;;5.80;2.83;;;;;;;;;;4962991;28;20500;-71
2023/06/26 10:11:54;;;;;;;8.30;3.17;;;;;;;;;;4971359;28;20498;-72
2023/06/26 10:14:22;;;;;;;8.50;3.53;;;;;;;;;;4963094;28;20157;-72
2023/06/26 10:16:50;;;;;;;8.40;2.75;;;;;;;;;;5005178;28;20055;-72
2023/06/26 10:19:23;;;;;;;8.38;2.70;;;;;;;;;;4959772;28;20055;-71
2023/06/26 10:21:50;;;;;;;9.40;2.88;;;;;;;;;;4963309;28;20433;-73
2023/06/26 10:24:16;;;;;;;9.00;3.00;;;;;;;;;;5006883;28;20108;-71
2023/06/26 10:26:45;;;;;;;9.82;2.90;;;;;;;;;;5017727;28;20430;-73
2023/06/26 10:29:11;;;;;;;7.72;2.85;;;;;;;;;;5003483;28;20050;-73
2023/06/26 10:31:41;;;;;;;9.45;3.45;;;;;;;;;;4961324;28;20047;-73
2023/06/26 10:34:07;;;;;;;7.60;2.72;;;;;;;;;;4956458;28;20055;-73
2023/06/26 10:36:36;;;;;;;9.80;3.53;;;;;;;;;;4961659;28;20047;-72
2023/06/26 10:39:05;;;;;;;9.05;2.90;;;;;;;;;;4963594;28;20043;-71
2023/06/26 10:41:36;;;;;;;7.88;2.75;;;;;;;;;;5013537;28;20069;-71
2023/06/26 10:44:03;;;;;;;10.65;2.88;;;;;;;;;;4961678;28;20061;-73
2023/06/26 10:46:29;;;;;;;11.05;3.15;;;;;;;;;;5014906;28;20061;-72
2023/06/26 10:49:03;;;;;;;8.40;2.90;;;;;;;;;;4963960;28;20042;-72
2023/06/26 10:51:29;;;;;;;8.48;2.85;;;;;;;;;;5025853;28;20042;-72
2023/06/26 10:53:56;;;;;;;9.93;2.90;;;;;;;;;;4964300;28;20093;-73
2023/06/26 10:56:42;;;;;;;7.30;2.83;;;;;;;;;;4955911;28;20086;-72
2023/06/26 10:59:14;;;;;;;8.82;2.42;;;;;;;;;;5027686;28;20134;-75
2023/06/26 11:01:44;;;;;;;6.70;2.90;;;;;;;;;;5036504;28;20078;-75
2023/06/26 11:04:11;;;;;;;10.77;3.08;;;;;;;;;;4968539;28;20097;-75
2023/06/26 11:06:38;;;;;;;7.95;2.72;;;;;;;;;;4962438;28;20069;-75
2023/06/26 11:09:04;;;;;;;7.93;3.05;;;;;;;;;;4968204;28;20077;-75
2023/06/26 11:11:49;;;;;;;10.57;3.30;;;;;;;;;;4992274;28;20183;-73
2023/06/26 11:14:16;;;;;;;6.60;2.53;;;;;;;;;;5012174;28;20632;-74
2023/06/26 11:16:43;;;;;;;10.82;2.70;;;;;;;;;;4967070;28;20050;-74
2023/06/26 11:19:10;;;;;;;12.85;3.42;;;;;;;;;;4962936;28;20043;-74
2023/06/26 11:21:38;;;;;;;8.88;2.90;;;;;;;;;;4994584;28;20042;-74
2023/06/26 11:24:07;;;;;;;6.65;2.90;;;;;;;;;;5065275;28;20051;-75
2023/06/26 11:26:40;;;;;;;10.10;3.13;;;;;;;;;;4982423;28;20342;-74
2023/06/26 11:29:06;;;;;;;;;;;;;;;;;;4974241;28;20066;-73
2023/06/26 11:31:37;;;;;;;8.70;3.05;;;;;;;;;;4966217;28;20025;-73
2023/06/26 11:34:04;;;;;;;7.13;2.97;;;;;;;;;;4962255;28;20062;-73
2023/06/26 11:36:31;;;;;;;5.85;2.67;;;;;;;;;;4962513;28;20039;-73
2023/06/26 11:38:58;;;;;;;7.18;3.10;;;;;;;;;;4977697;28;20039;-73
2023/06/26 11:41:25;;;;;;;8.88;2.90;;;;;;;;;;4972982;28;20054;-74
2023/06/26 11:43:52;;;;;;;7.65;2.92;;;;;;;;;;5065885;28;20043;-74
2023/06/26 11:46:18;;;;;;;11.93;3.53;;;;;;;;;;4960222;28;20046;-73
2023/06/26 11:48:44;;;;;;;8.88;3.15;;;;;;;;;;4961121;28;20031;-72
2023/06/26 11:51:14;;;;;;;11.65;3.22;;;;;;;;;;4960897;28;20049;-73
2023/06/26 11:53:41;;;;;;;7.68;3.08;;;;;;;;;;5029328;28;20132;-75
2023/06/26 11:56:12;;;;;;;8.55;2.95;;;;;;;;;;4976443;28;20653;-74
2023/06/26 11:58:55;;;;;;;7.03;3.00;;;;;;;;;;4963779;28;20047;-74
2023/06/26 12:01:22;;;;;;;8.18;2.80;;;;;;;;;;5024635;28;20046;-74
2023/06/26 12:03:49;;;;;;;8.85;3.17;;;;;;;;;;4954634;28;20333;-74
2023/06/26 12:06:15;;;;;;;9.00;3.40;;;;;;;;;;4985170;28;20404;-74
2023/06/26 12:08:41;;;;;;;8.18;2.80;;;;;;;;;;4973709;28;20458;-74
2023/06/26 12:11:07;;;;;;;9.93;4.00;;;;;;;;;;4965421;28;20043;-73
2023/06/26 12:13:34;;;;;;;7.28;2.83;;;;;;;;;;4955355;28;20560;-72
2023/06/26 12:16:00;;;;;;;8.80;3.28;;;;;;;;;;5028864;28;20046;-73
2023/06/26 12:18:26;;;;;;;7.40;3.10;;;;;;;;;;4964912;28;20050;-73
2023/06/26 12:20:53;;;;;;;8.52;3.08;;;;;;;;;;5067595;28;20049;-74
2023/06/26 12:23:19;;;;;;;9.07;3.20;;;;;;;;;;5045879;28;20055;-73
2023/06/26 12:25:51;;;;;;;8.27;3.20;;;;;;;;;;4957535;28;20050;-71
2023/06/26 12:28:18;;;;;;;5.07;2.40;;;;;;;;;;5023330;28;20059;-71
2023/06/26 12:30:47;;;;;;;9.88;3.38;;;;;;;;;;4975418;28;20054;-72
2023/06/26 12:33:15;;;;;;;8.07;2.75;;;;;;;;;;5033518;28;20051;-72
2023/06/26 12:35:43;;;;;;;12.45;3.28;;;;;;;;;;4955482;28;20050;-74
2023/06/26 12:38:15;;;;;;;8.43;2.95;;;;;;;;;;4960725;28;20124;-73
2023/06/26 12:40:46;;;;;;;10.73;3.08;;;;;;;;;;4973151;28;20050;-74
2023/06/26 12:43:22;;;;;;;10.48;2.70;;;;;;;;;;5036248;28;20061;-73
2023/06/26 12:45:48;;;;;;;8.65;3.17;;;;;;;;;;4972787;28;20538;-73
2023/06/26 12:48:16;;;;;;;9.40;3.03;;;;;;;;;;5057225;28;20051;-73
2023/06/26 12:50:45;;;;;;;8.05;2.75;;;;;;;;;;5038788;28;20051;-73
2023/06/26 12:53:12;;;;;;;7.22;2.88;;;;;;;;;;5030941;28;20043;-73
2023/06/26 12:55:38;;;;;;;7.45;2.60;;;;;;;;;;4969338;28;20042;-72
2023/06/26 12:58:04;;;;;;;8.20;3.08;;;;;;;;;;5070442;28;20398;-73
2023/06/26 13:00:31;;;;;;;10.27;3.45;;;;;;;;;;4966563;28;20044;-73
2023/06/26 13:02:58;;;;;;;6.28;2.90;;;;;;;;;;4952996;28;20073;-73
2023/06/26 13:05:24;;;;;;;9.18;3.03;;;;;;;;;;4977503;28;20046;-73
2023/06/26 13:07:50;;;;;;;8.98;2.83;;;;;;;;;;5047826;28;20484;-74
2023/06/26 13:10:16;;;;;;;7.75;2.78;;;;;;;;;;4956818;28;20100;-73
2023/06/26 13:12:42;;;;;;;10.15;3.13;;;;;;;;;;5039013;28;20095;-74
2023/06/26 13:15:09;;;;;;;9.77;3.25;;;;;;;;;;4983927;28;20061;-74
2023/06/26 13:17:35;;;;;;;10.02;2.75;;;;;;;;;;4977572;28;20039;-72
2023/06/26 13:20:01;;;;;;;9.77;2.70;;;;;;;;;;4980560;28;20050;-73
2023/06/26 13:22:27;;;;;;;6.88;2.70;;;;;;;;;;4991883;28;20540;-73
2023/06/26 13:24:53;;;;;;;8.25;2.75;;;;;;;;;;4965730;28;20070;-73
2023/06/26 13:27:20;;;;;;;6.50;2.78;;;;;;;;;;4963930;28;20043;-73
2023/06/26 13:29:46;;;;;;;11.15;3.10;;;;;;;;;;4971490;28;20051;-74
2023/06/26 13:32:12;;;;;;;8.35;2.67;;;;;;;;;;5023422;28;20058;-73
2023/06/26 13:34:38;;;;;;;6.55;3.17;;;;;;;;;;5040272;28;20116;-72
2023/06/26 13:37:04;;;;;;;5.68;2.72;;;;;;;;;;5030518;28;20487;-73
2023/06/26 13:39:30;;;;;;;7.13;3.10;;;;;;;;;;5018831;28;20054;-73
2023/06/26 13:41:56;;;;;;;7.03;2.90;;;;;;;;;;4957396;28;20182;-74
2023/06/26 13:44:22;;;;;;;8.27;3.13;;;;;;;;;;4970597;28;20490;-73
2023/06/26 13:46:48;;;;;;;6.50;2.30;;;;;;;;;;5037953;28;20057;-73
2023/06/26 13:49:14;;;;;;;5.80;2.72;;;;;;;;;;5026940;28;20047;-72
2023/06/26 13:51:45;;;;;;;7.45;3.38;;;;;;;;;;4968342;28;20069;-74
2023/06/26 13:54:11;;;;;;;5.95;2.47;;;;;;;;;;4952476;29;20090;-73
2023/06/26 13:56:37;;;;;;;4.90;2.40;;;;;;;;;;4956098;28;20050;-73
2023/06/26 13:59:04;;;;;;;5.38;2.60;;;;;;;;;;4958076;28;20070;-74
2023/06/26 14:01:30;;;;;;;10.13;2.78;;;;;;;;;;4970847;28;20051;-74
2023/06/26 14:03:56;;;;;;;8.82;2.90;;;;;;;;;;4965928;28;20038;-74
2023/06/26 14:06:22;;;;;;;7.20;2.75;;;;;;;;;;4968455;28;20103;-73
2023/06/26 14:08:48;;;;;;;3.90;2.50;;;;;;;;;;4952382;28;20043;-73
2023/06/26 14:11:15;;;;;;;5.53;2.47;;;;;;;;;;5039634;28;20055;-74
2023/06/26 14:13:41;;;;;;;6.68;3.00;;;;;;;;;;5055512;28;20091;-75
2023/06/26 14:16:07;;;;;;;6.78;2.53;;;;;;;;;;4980250;28;20133;-73
2023/06/26 14:18:34;;;;;;;6.80;3.10;;;;;;;;;;4975767;28;20121;-74
2023/06/26 14:21:02;;;;;;;10.10;2.60;;;;;;;;;;4954479;28;20063;-74
2023/06/26 14:23:28;;;;;;;5.07;2.35;;;;;;;;;;4988439;28;20087;-74
2023/06/26 14:25:54;;;;;;;9.77;2.83;;;;;;;;;;4957159;28;20055;-74
2023/06/26 14:28:23;;;;;;;5.20;2.53;;;;;;;;;;5053606;28;20046;-75
2023/06/26 14:30:49;;;;;;;6.63;2.65;;;;;;;;;;5032682;28;20160;-72
2023/06/26 14:33:15;;;;;;;9.10;2.42;;;;;;;;;;5056149;28;20042;-73
2023/06/26 14:35:41;;;;;;;8.27;2.70;;;;;;;;;;4967465;28;20039;-73
2023/06/26 14:38:07;;;;;;;5.47;2.72;;;;;;;;;;4963404;28;20051;-72